Time;durP1;ratioP1;P1;durP2;ratioP2;P2;SDS_P1;SDS_P2;PMS_P1;PMS_P2;Temp;Humidity;BMP_temperature;BMP_pressure;BME280_temperature;BME280_humidity;BME280_pressure;Samples;Min_cycle;Max_cycle;Signal;HPM_P1;HPM_P2
2022/11/02 00:01:27;;;;;;;3.35;1.38;;;15.20;99.90;;;;;;5060992;28;20169;-75
2022/11/02 00:03:55;;;;;;;4.60;1.30;;;15.10;99.90;;;;;;5032127;28;20185;-75
2022/11/02 00:06:23;;;;;;;4.53;1.35;;;15.10;99.90;;;;;;5037398;28;20174;-74
2022/11/02 00:08:49;;;;;;;5.22;1.40;;;15.10;99.90;;;;;;5035515;28;20177;-74
2022/11/02 00:11:14;;;;;;;5.68;1.48;;;15.10;99.90;;;;;;5037268;28;20202;-74
2022/11/02 00:13:40;;;;;;;4.57;1.40;;;15.10;99.90;;;;;;5034252;28;20174;-73
2022/11/02 00:16:10;;;;;;;5.80;1.35;;;15.10;99.90;;;;;;5035742;28;20246;-74
2022/11/02 00:18:36;;;;;;;4.80;1.50;;;15.20;99.90;;;;;;5050495;28;20198;-75
2022/11/02 00:21:07;;;;;;;3.58;1.20;;;15.20;99.90;;;;;;5034413;28;20183;-75
2022/11/02 00:23:35;;;;;;;6.45;1.70;;;15.20;99.90;;;;;;5023049;28;20174;-73
2022/11/02 00:26:01;;;;;;;8.88;1.55;;;15.20;99.90;;;;;;5029531;28;20644;-74
2022/11/02 00:28:27;;;;;;;6.13;1.65;;;15.20;99.90;;;;;;5030989;28;20254;-76
2022/11/02 00:30:55;;;;;;;5.03;1.20;;;15.20;99.90;;;;;;5034547;28;20182;-74
2022/11/02 00:33:23;;;;;;;4.60;1.50;;;15.20;99.90;;;;;;5039683;28;20182;-77
2022/11/02 00:35:49;;;;;;;4.85;1.35;;;15.20;99.90;;;;;;5033416;28;20199;-74
2022/11/02 00:38:14;;;;;;;6.22;1.50;;;15.20;99.90;;;;;;5029019;28;20259;-73
2022/11/02 00:40:42;;;;;;;5.05;1.40;;;15.20;99.90;;;;;;5034003;28;20268;-74
2022/11/02 00:43:08;;;;;;;5.28;1.40;;;15.20;99.90;;;;;;5041709;28;20178;-73
2022/11/02 00:45:36;;;;;;;3.10;1.30;;;15.20;99.90;;;;;;5036673;28;20559;-73
2022/11/02 00:48:01;;;;;;;4.93;1.45;;;15.20;99.90;;;;;;5024847;28;20186;-71
2022/11/02 00:50:27;;;;;;;5.70;1.33;;;15.20;99.90;;;;;;5050829;28;20174;-74
2022/11/02 00:52:53;;;;;;;4.25;1.50;;;15.20;99.90;;;;;;5039582;28;20242;-75
2022/11/02 00:55:21;;;;;;;3.88;1.40;;;15.20;99.90;;;;;;5064547;28;20197;-75
2022/11/02 00:57:46;;;;;;;3.10;1.17;;;15.20;99.90;;;;;;5023606;28;20232;-73
2022/11/02 01:00:13;;;;;;;5.22;1.70;;;15.20;99.90;;;;;;5034270;28;20202;-73
2022/11/02 01:02:39;;;;;;;4.28;1.17;;;15.20;99.90;;;;;;5027722;28;20202;-75
2022/11/02 01:05:06;;;;;;;7.55;1.63;;;15.20;99.90;;;;;;5061316;28;20182;-73
2022/11/02 01:07:32;;;;;;;3.97;1.10;;;15.20;99.90;;;;;;5042444;28;20179;-74
2022/11/02 01:09:57;;;;;;;6.90;1.60;;;15.20;99.90;;;;;;5045906;28;20178;-74
2022/11/02 01:12:23;;;;;;;7.45;1.70;;;15.20;99.90;;;;;;5034529;28;20174;-74
2022/11/02 01:14:49;;;;;;;6.50;1.65;;;15.20;99.90;;;;;;5016721;28;20268;-74
2022/11/02 01:17:18;;;;;;;5.60;1.95;;;15.20;99.90;;;;;;5039820;28;20198;-74
2022/11/02 01:19:44;;;;;;;5.50;1.50;;;15.20;99.90;;;;;;5062147;28;20209;-76
2022/11/02 01:22:12;;;;;;;4.65;1.35;;;15.20;99.90;;;;;;5035763;28;20239;-76
2022/11/02 01:24:38;;;;;;;4.60;1.35;;;15.20;99.90;;;;;;5036577;28;20178;-76
2022/11/02 01:27:03;;;;;;;5.50;1.50;;;15.20;99.90;;;;;;5029610;28;20209;-75
2022/11/02 01:29:31;;;;;;;4.03;1.50;;;15.20;99.90;;;;;;5024567;28;20175;-75
2022/11/02 01:31:59;;;;;;;3.95;1.33;;;15.20;99.90;;;;;;5042603;28;20193;-74
2022/11/02 01:34:25;;;;;;;5.57;1.50;;;15.20;99.90;;;;;;5036224;28;20189;-75
2022/11/02 01:36:53;;;;;;;4.68;1.30;;;15.20;99.90;;;;;;5037508;28;20182;-73
2022/11/02 01:39:21;;;;;;;4.85;1.60;;;15.20;99.90;;;;;;5035973;28;20297;-74
2022/11/02 01:41:56;;;;;;;4.32;1.35;;;15.20;99.90;;;;;;5034109;28;20273;-75
2022/11/02 01:44:35;;;;;;;4.45;1.55;;;15.20;99.90;;;;;;5041074;28;20173;-74
2022/11/02 01:47:09;;;;;;;5.63;1.50;;;15.20;99.90;;;;;;5037632;28;20253;-74
2022/11/02 01:49:41;;;;;;;8.10;1.60;;;15.20;99.90;;;;;;5034559;28;20362;-74
2022/11/02 01:52:19;;;;;;;4.57;1.42;;;15.20;99.90;;;;;;5024916;28;20305;-74
2022/11/02 01:54:53;;;;;;;7.43;1.70;;;15.20;99.90;;;;;;5030110;28;20177;-75
2022/11/02 01:57:20;;;;;;;9.60;1.73;;;15.20;99.90;;;;;;5041804;28;20236;-74
2022/11/02 01:59:56;;;;;;;7.20;1.80;;;15.20;99.90;;;;;;5029190;28;20204;-75
2022/11/02 02:02:26;;;;;;;4.22;1.60;;;15.20;99.90;;;;;;5036227;28;20186;-75
2022/11/02 02:05:13;;;;;;;4.30;1.73;;;15.10;99.90;;;;;;5030619;28;20228;-74
2022/11/02 02:07:45;;;;;;;6.30;1.55;;;15.10;99.90;;;;;;5059299;28;20181;-73
2022/11/02 02:10:11;;;;;;;4.95;1.42;;;15.10;99.90;;;;;;5040622;28;20183;-74
2022/11/02 02:12:40;;;;;;;4.80;1.50;;;15.00;99.90;;;;;;5031766;28;20339;-73
2022/11/02 02:15:07;;;;;;;6.10;1.60;;;15.00;99.90;;;;;;5038040;28;20174;-75
2022/11/02 02:17:57;;;;;;;4.72;1.60;;;15.00;99.90;;;;;;5027060;28;20252;-73
2022/11/02 02:20:44;;;;;;;5.47;1.42;;;14.90;99.90;;;;;;5041844;28;20165;-74
2022/11/02 02:23:41;;;;;;;4.32;1.60;;;14.90;99.90;;;;;;5031358;28;20178;-74
2022/11/02 02:26:09;;;;;;;5.32;1.83;;;14.90;99.90;;;;;;5040198;28;20234;-75
2022/11/02 02:28:44;;;;;;;5.20;1.63;;;14.90;99.90;;;;;;5061317;28;20177;-74
2022/11/02 02:31:16;;;;;;;5.07;1.52;;;14.90;99.90;;;;;;5057169;28;20178;-72
2022/11/02 02:33:45;;;;;;;4.75;1.60;;;14.90;99.90;;;;;;5062134;28;20166;-73
2022/11/02 02:36:10;;;;;;;4.15;1.48;;;14.80;99.90;;;;;;5041281;28;20216;-73
2022/11/02 02:38:39;;;;;;;5.40;1.40;;;14.80;99.90;;;;;;5035992;28;20210;-73
2022/11/02 02:41:36;;;;;;;3.08;1.33;;;14.80;99.90;;;;;;5048538;28;21364;-74
2022/11/02 02:44:03;;;;;;;5.32;1.40;;;14.70;99.90;;;;;;5031680;28;20177;-75
2022/11/02 02:46:42;;;;;;;4.15;1.38;;;14.70;99.90;;;;;;5029893;28;20444;-74
2022/11/02 02:49:14;;;;;;;5.05;1.40;;;14.70;99.90;;;;;;5033602;28;20243;-73
2022/11/02 02:51:43;;;;;;;4.97;1.55;;;14.60;99.90;;;;;;5036825;28;20257;-73
2022/11/02 02:54:17;;;;;;;4.43;1.50;;;14.60;99.90;;;;;;5046680;28;20181;-74
2022/11/02 02:56:59;;;;;;;5.32;1.90;;;14.70;99.90;;;;;;5051177;28;20280;-75
2022/11/02 02:59:25;;;;;;;4.15;1.45;;;14.60;99.90;;;;;;5022210;28;20202;-74
2022/11/02 03:01:51;;;;;;;5.05;1.73;;;14.60;99.90;;;;;;5042489;28;20208;-74
2022/11/02 03:04:17;;;;;;;3.95;1.35;;;14.50;99.90;;;;;;5056623;28;20260;-75
2022/11/02 03:06:51;;;;;;;4.45;1.20;;;14.50;99.90;;;;;;5032273;28;20266;-75
2022/11/02 03:09:38;;;;;;;3.88;1.45;;;14.50;99.90;;;;;;5029931;28;20258;-76
2022/11/02 03:12:22;;;;;;;4.57;1.33;;;14.50;99.90;;;;;;5049485;28;20274;-76
2022/11/02 03:14:57;;;;;;;5.32;1.60;;;14.40;99.90;;;;;;5067987;28;20201;-77
2022/11/02 03:17:59;;;;;;;6.60;1.70;;;14.40;99.90;;;;;;5052601;28;20192;-75
2022/11/02 03:20:33;;;;;;;3.65;1.33;;;14.40;99.90;;;;;;5042900;28;20270;-76
2022/11/02 03:23:23;;;;;;;5.15;1.50;;;14.40;99.90;;;;;;5055236;28;20185;-74
2022/11/02 03:26:06;;;;;;;4.35;1.42;;;14.40;99.90;;;;;;5044096;28;20199;-75
2022/11/02 03:28:35;;;;;;;5.10;1.42;;;14.30;99.90;;;;;;5031701;28;20242;-76
2022/11/02 03:31:08;;;;;;;3.83;1.52;;;14.30;99.90;;;;;;5027846;28;20217;-77
2022/11/02 03:34:05;;;;;;;4.07;1.27;;;14.30;99.90;;;;;;5065850;28;20189;-77
2022/11/02 03:36:38;;;;;;;5.68;1.50;;;14.30;99.90;;;;;;5034217;28;20177;-76
2022/11/02 03:39:07;;;;;;;4.70;1.50;;;14.20;99.90;;;;;;5040137;28;20197;-77
2022/11/02 03:41:36;;;;;;;5.10;1.73;;;14.20;99.90;;;;;;5036401;28;20201;-76
2022/11/02 03:44:10;;;;;;;3.60;1.10;;;14.20;99.90;;;;;;5028971;28;20190;-76
2022/11/02 03:46:42;;;;;;;4.53;1.35;;;14.20;99.90;;;;;;5042041;28;20293;-76
2022/11/02 03:49:15;;;;;;;5.03;1.55;;;14.20;99.90;;;;;;5036507;28;20189;-77
2022/11/02 03:51:45;;;;;;;4.32;1.50;;;14.20;99.90;;;;;;5033886;28;20178;-74
2022/11/02 03:54:42;;;;;;;6.85;1.52;;;14.10;99.90;;;;;;5022991;28;20174;-76
2022/11/02 03:57:17;;;;;;;8.27;1.65;;;14.10;99.90;;;;;;5048236;28;20192;-77
2022/11/02 03:59:43;;;;;;;5.00;1.90;;;14.10;99.90;;;;;;5023072;28;20209;-76
2022/11/02 04:02:10;;;;;;;4.32;1.70;;;14.10;99.90;;;;;;5038595;28;20208;-77
2022/11/02 04:04:49;;;;;;;6.82;1.70;;;14.10;99.90;;;;;;5055248;28;20306;-76
2022/11/02 04:07:22;;;;;;;5.03;1.60;;;14.10;99.90;;;;;;5041693;28;20201;-77
2022/11/02 04:09:48;;;;;;;5.35;1.90;;;14.00;99.90;;;;;;5032607;28;20186;-79
2022/11/02 04:15:00;;;;;;;3.60;2.05;;;14.00;99.90;;;;;;5030433;28;20204;-76
2022/11/02 04:20:10;;;;;;;6.32;1.90;;;14.00;99.90;;;;;;5026700;28;20248;-76
2022/11/02 04:25:20;;;;;;;3.72;1.30;;;13.90;99.90;;;;;;5027366;28;20263;-75
2022/11/02 04:27:50;;;;;;;6.13;1.65;;;13.90;99.90;;;;;;5029903;28;20371;-76
2022/11/02 04:30:21;;;;;;;4.30;1.50;;;13.90;99.90;;;;;;5032492;28;20274;-74
2022/11/02 04:35:36;;;;;;;3.47;1.27;;;13.80;99.90;;;;;;5031329;28;20244;-76
2022/11/02 04:41:40;;;;;;;6.32;1.70;;;13.80;99.90;;;;;;5044041;28;20176;-76
2022/11/02 04:43:38;;;;;;;6.05;1.75;;;13.80;99.90;;;;;;5037087;28;20221;-75
2022/11/02 04:46:04;;;;;;;4.53;1.50;;;13.80;99.90;;;;;;5032921;28;20178;-76
2022/11/02 04:48:29;;;;;;;2.92;1.25;;;13.80;99.90;;;;;;5026378;28;20187;-77
2022/11/02 04:50:57;;;;;;;2.78;1.30;;;13.80;99.90;;;;;;5033205;28;20175;-75
2022/11/02 04:53:23;;;;;;;4.30;1.40;;;13.70;99.90;;;;;;5045572;28;20178;-74
2022/11/02 04:55:51;;;;;;;5.05;1.50;;;13.70;99.90;;;;;;5036109;28;20217;-75
2022/11/02 04:58:16;;;;;;;4.95;1.50;;;13.80;99.90;;;;;;5043771;28;20202;-76
2022/11/02 05:00:42;;;;;;;4.28;1.38;;;13.80;99.90;;;;;;5050169;28;20204;-73
2022/11/02 05:03:08;;;;;;;3.38;1.33;;;13.80;99.90;;;;;;5037720;28;20201;-75
2022/11/02 05:05:35;;;;;;;2.60;1.38;;;13.80;99.90;;;;;;5035040;28;20178;-76
2022/11/02 05:08:03;;;;;;;4.43;1.30;;;13.80;99.90;;;;;;5052198;28;20198;-75
2022/11/02 05:10:29;;;;;;;4.75;2.38;;;13.80;99.90;;;;;;5047870;28;20178;-76
2022/11/02 05:12:59;;;;;;;5.00;1.60;;;13.80;99.90;;;;;;5029292;28;20180;-77
2022/11/02 05:15:25;;;;;;;3.67;1.50;;;13.80;99.90;;;;;;5042927;28;20213;-75
2022/11/02 05:17:54;;;;;;;5.65;1.30;;;13.70;99.90;;;;;;5040248;28;20190;-77
2022/11/02 05:20:22;;;;;;;3.42;1.40;;;13.80;99.90;;;;;;5028616;28;20251;-74
2022/11/02 05:22:47;;;;;;;3.80;1.10;;;13.80;99.90;;;;;;5051897;28;20167;-76
2022/11/02 05:25:13;;;;;;;5.55;2.00;;;13.70;99.90;;;;;;5037361;28;20166;-75
2022/11/02 05:27:39;;;;;;;5.90;2.08;;;13.70;99.90;;;;;;5035611;28;20201;-75
2022/11/02 05:30:05;;;;;;;4.82;1.75;;;13.70;99.90;;;;;;5050724;28;20178;-74
2022/11/02 05:32:31;;;;;;;3.60;1.30;;;13.60;99.90;;;;;;5052088;28;20173;-75
2022/11/02 05:34:56;;;;;;;6.10;1.42;;;13.60;99.90;;;;;;5032908;28;20186;-76
2022/11/02 05:37:22;;;;;;;3.65;1.20;;;13.60;99.90;;;;;;5028586;28;20266;-76
2022/11/02 05:39:48;;;;;;;3.50;1.15;;;13.60;99.90;;;;;;5047964;28;20209;-75
2022/11/02 05:42:14;;;;;;;5.97;1.45;;;13.60;99.90;;;;;;5034967;28;20186;-76
2022/11/02 05:44:41;;;;;;;3.50;1.30;;;13.60;99.90;;;;;;5028668;28;20228;-76
2022/11/02 05:47:07;;;;;;;3.70;1.20;;;13.50;99.90;;;;;;5034550;28;20193;-74
2022/11/02 05:49:35;;;;;;;4.18;1.15;;;13.60;99.90;;;;;;5029159;28;20185;-75
2022/11/02 05:52:00;;;;;;;3.78;1.00;;;13.50;99.90;;;;;;5043267;28;20189;-74
2022/11/02 05:54:26;;;;;;;6.70;2.50;;;13.40;99.90;;;;;;5034737;28;20182;-74
2022/11/02 05:56:54;;;;;;;3.47;1.75;;;13.50;99.90;;;;;;5036617;28;20182;-74
2022/11/02 05:59:19;;;;;;;3.95;1.40;;;13.50;99.90;;;;;;5022018;28;20316;-76
2022/11/02 06:01:45;;;;;;;3.75;1.30;;;13.50;99.90;;;;;;5034052;28;20257;-75
2022/11/02 06:04:10;;;;;;;3.20;1.20;;;13.40;99.90;;;;;;5029122;28;20231;-74
2022/11/02 06:06:36;;;;;;;5.13;1.63;;;13.40;99.90;;;;;;5033388;28;20201;-74
2022/11/02 06:09:02;;;;;;;3.88;1.42;;;13.40;99.90;;;;;;5051428;28;20186;-74
2022/11/02 06:11:27;;;;;;;3.00;1.27;;;13.40;99.90;;;;;;5049146;28;20206;-75
2022/11/02 06:13:53;;;;;;;4.68;1.42;;;13.40;99.90;;;;;;5035253;28;20178;-74
2022/11/02 06:16:19;;;;;;;2.85;1.10;;;13.40;99.90;;;;;;5039842;28;20185;-75
2022/11/02 06:18:44;;;;;;;5.55;1.30;;;13.40;99.90;;;;;;5028488;28;20205;-74
2022/11/02 06:21:15;;;;;;;4.43;1.30;;;13.50;99.90;;;;;;5072478;28;20253;-75
2022/11/02 06:23:41;;;;;;;4.05;1.30;;;13.50;99.90;;;;;;5059589;28;20188;-75
2022/11/02 06:26:11;;;;;;;5.50;1.40;;;13.50;99.90;;;;;;5050086;28;20173;-75
2022/11/02 06:28:37;;;;;;;3.08;1.13;;;13.50;99.90;;;;;;5036582;28;20178;-75
2022/11/02 06:31:04;;;;;;;3.42;1.58;;;13.60;99.90;;;;;;5037422;28;20218;-75
2022/11/02 06:33:30;;;;;;;5.38;1.45;;;13.60;99.90;;;;;;5037511;28;20174;-77
2022/11/02 06:35:56;;;;;;;4.25;1.40;;;13.60;99.90;;;;;;5047794;28;20250;-77
2022/11/02 06:38:22;;;;;;;4.32;1.30;;;13.70;99.90;;;;;;5033497;28;20178;-77
2022/11/02 06:41:02;;;;;;;3.88;1.15;;;13.70;99.90;;;;;;5038626;28;20182;-78
2022/11/02 06:43:28;;;;;;;2.95;1.27;;;13.70;99.90;;;;;;5040767;28;20252;-77
2022/11/02 06:45:57;;;;;;;2.28;1.02;;;13.70;99.90;;;;;;5057288;28;20261;-75
2022/11/02 06:48:23;;;;;;;2.85;1.15;;;13.80;99.90;;;;;;5035724;28;20185;-75
2022/11/02 06:50:49;;;;;;;4.03;1.30;;;13.80;99.90;;;;;;5052763;28;20174;-75
2022/11/02 06:53:15;;;;;;;4.35;1.30;;;13.80;99.90;;;;;;5035626;28;20237;-76
2022/11/02 06:55:40;;;;;;;3.65;1.15;;;13.80;99.90;;;;;;5034191;28;20197;-75
2022/11/02 06:58:06;;;;;;;4.20;1.33;;;13.80;99.90;;;;;;5037022;28;20170;-76
2022/11/02 07:00:32;;;;;;;4.18;1.23;;;13.80;99.90;;;;;;5027140;28;20198;-76
2022/11/02 07:02:59;;;;;;;5.78;1.55;;;13.80;99.90;;;;;;5034824;28;20174;-75
2022/11/02 07:05:27;;;;;;;4.47;1.50;;;13.80;99.90;;;;;;5046528;28;20183;-76
2022/11/02 07:07:53;;;;;;;5.22;1.27;;;13.70;99.90;;;;;;5050664;28;20193;-76
2022/11/02 07:10:22;;;;;;;3.42;1.10;;;13.70;99.90;;;;;;5036323;28;20181;-75
2022/11/02 07:12:52;;;;;;;3.63;1.40;;;13.70;99.90;;;;;;5038598;28;20253;-75
2022/11/02 07:15:20;;;;;;;2.65;1.05;;;13.70;99.90;;;;;;5073522;28;20205;-73
2022/11/02 07:17:48;;;;;;;4.22;1.30;;;13.70;99.90;;;;;;5054354;28;20194;-73
2022/11/02 07:20:16;;;;;;;2.97;1.10;;;13.70;99.90;;;;;;5034799;28;20202;-75
2022/11/02 07:22:52;;;;;;;3.45;1.17;;;13.70;99.90;;;;;;5028458;28;20244;-76
2022/11/02 07:25:22;;;;;;;3.03;1.00;;;13.70;99.90;;;;;;5043465;28;20316;-77
2022/11/02 07:27:50;;;;;;;3.92;1.10;;;13.70;99.90;;;;;;5034656;28;20193;-77
2022/11/02 07:30:18;;;;;;;3.03;1.15;;;13.70;99.90;;;;;;5033511;28;20247;-75
2022/11/02 07:32:48;;;;;;;3.60;1.48;;;13.70;99.90;;;;;;5017850;28;20185;-74
2022/11/02 07:35:16;;;;;;;4.65;1.23;;;13.70;99.90;;;;;;5035061;28;20227;-73
2022/11/02 07:37:42;;;;;;;4.55;1.05;;;13.70;99.90;;;;;;5031085;28;20221;-73
2022/11/02 07:40:13;;;;;;;3.97;1.25;;;13.70;99.90;;;;;;5028967;28;20210;-74
2022/11/02 07:42:45;;;;;;;4.88;1.20;;;13.70;99.90;;;;;;5051865;28;20182;-74
2022/11/02 07:45:13;;;;;;;3.05;1.00;;;13.70;99.90;;;;;;5034596;28;20193;-75
2022/11/02 07:47:44;;;;;;;5.45;1.30;;;13.70;99.90;;;;;;5038421;28;20211;-74
2022/11/02 07:50:10;;;;;;;2.58;1.10;;;13.80;99.90;;;;;;5030206;28;20222;-74
2022/11/02 07:52:46;;;;;;;4.40;1.10;;;13.80;99.90;;;;;;5040714;28;20194;-75
2022/11/02 07:55:16;;;;;;;2.55;0.98;;;13.80;99.90;;;;;;5031831;28;20181;-78
2022/11/02 07:57:57;;;;;;;1.63;0.88;;;13.90;99.90;;;;;;5022884;28;20183;-78
2022/11/02 08:00:27;;;;;;;3.22;1.10;;;13.90;99.90;;;;;;5035126;28;20205;-78
2022/11/02 08:02:57;;;;;;;5.05;1.67;;;14.00;99.90;;;;;;5050844;28;20198;-77
2022/11/02 08:05:26;;;;;;;7.03;1.55;;;14.00;99.90;;;;;;5045394;28;20234;-78
2022/11/02 08:08:00;;;;;;;3.97;1.25;;;14.10;99.90;;;;;;5047599;28;20185;-79
2022/11/02 08:10:27;;;;;;;4.15;1.50;;;14.20;99.90;;;;;;5038011;28;20177;-78
2022/11/02 08:12:53;;;;;;;4.97;1.30;;;14.20;99.90;;;;;;5045007;28;20284;-77
2022/11/02 08:15:23;;;;;;;4.63;1.23;;;14.20;99.90;;;;;;5046188;28;20244;-77
2022/11/02 08:18:17;;;;;;;2.90;1.15;;;14.30;99.90;;;;;;5031311;28;20193;-77
2022/11/02 08:20:46;;;;;;;2.95;1.10;;;14.30;99.90;;;;;;5032732;28;20171;-78
2022/11/02 08:23:14;;;;;;;4.18;1.20;;;14.40;99.90;;;;;;5031904;28;20186;-77
2022/11/02 08:25:44;;;;;;;3.17;1.17;;;14.50;99.90;;;;;;5034404;28;20198;-79
2022/11/02 08:28:13;;;;;;;6.78;1.65;;;14.50;99.90;;;;;;5036469;28;20189;-78
2022/11/02 08:30:39;;;;;;;4.10;1.20;;;14.60;99.90;;;;;;5072613;28;20181;-77
2022/11/02 08:33:08;;;;;;;4.60;1.30;;;14.70;99.90;;;;;;5049106;28;20182;-78
2022/11/02 08:35:38;;;;;;;4.35;1.10;;;14.80;99.90;;;;;;5029689;28;20317;-76
2022/11/02 08:38:05;;;;;;;3.92;1.10;;;14.90;99.90;;;;;;5061244;28;20198;-77
2022/11/02 08:40:34;;;;;;;4.60;1.23;;;15.00;99.90;;;;;;5048043;28;20942;-78
2022/11/02 08:43:04;;;;;;;4.93;1.42;;;15.10;99.90;;;;;;5030650;28;20174;-77
2022/11/02 08:45:31;;;;;;;3.45;1.05;;;15.20;99.90;;;;;;5032302;28;20195;-77
2022/11/02 08:47:57;;;;;;;5.25;1.40;;;15.20;99.90;;;;;;5047535;28;20174;-76
2022/11/02 08:50:27;;;;;;;4.82;1.25;;;15.30;99.90;;;;;;5038383;28;20182;-77
2022/11/02 08:52:53;;;;;;;3.63;1.25;;;15.30;99.90;;;;;;5056478;28;20421;-76
2022/11/02 08:55:20;;;;;;;3.88;0.98;;;15.40;99.90;;;;;;5051027;28;20182;-77
2022/11/02 08:57:56;;;;;;;4.78;1.30;;;15.40;99.90;;;;;;5036389;28;20213;-77
2022/11/02 09:00:27;;;;;;;2.78;0.90;;;15.50;99.90;;;;;;5035404;28;20209;-77
2022/11/02 09:03:04;;;;;;;4.20;1.25;;;15.60;99.90;;;;;;5034109;28;20178;-76
2022/11/02 09:05:33;;;;;;;4.30;1.38;;;15.90;99.90;;;;;;5026258;28;20194;-79
2022/11/02 09:08:00;;;;;;;5.57;1.35;;;16.20;99.90;;;;;;5032157;28;20182;-81
2022/11/02 09:10:30;;;;;;;3.25;1.02;;;16.60;99.90;;;;;;5033535;28;20210;-75
2022/11/02 09:12:58;;;;;;;4.88;1.30;;;17.00;99.90;;;;;;5036277;28;20166;-79
2022/11/02 09:15:25;;;;;;;5.13;1.48;;;17.30;99.90;;;;;;5031962;28;20182;-78
2022/11/02 09:17:50;;;;;;;9.43;1.58;;;17.60;99.90;;;;;;5020901;28;20198;-82
2022/11/02 09:20:17;;;;;;;5.55;1.55;;;17.90;99.90;;;;;;5028413;28;20204;-80
2022/11/02 09:22:43;;;;;;;6.10;1.50;;;18.00;99.90;;;;;;5034358;28;20182;-78
2022/11/02 09:25:10;;;;;;;5.68;1.70;;;18.20;99.90;;;;;;5027880;28;20184;-79
2022/11/02 09:27:35;;;;;;;7.60;1.90;;;18.30;99.90;;;;;;5035190;28;20186;-78
2022/11/02 09:30:04;;;;;;;5.32;1.63;;;18.40;99.90;;;;;;5029765;28;20213;-80
2022/11/02 09:32:33;;;;;;;6.80;1.45;;;18.40;99.90;;;;;;5036462;28;20190;-81
2022/11/02 09:35:10;;;;;;;5.65;1.50;;;18.40;99.90;;;;;;5025705;28;20180;-78
2022/11/02 09:37:36;;;;;;;5.10;1.15;;;18.50;99.90;;;;;;5036020;28;20316;-78
2022/11/02 09:40:03;;;;;;;5.43;1.48;;;18.50;99.90;;;;;;5040579;28;20209;-79
2022/11/02 09:42:43;;;;;;;4.30;1.40;;;18.60;99.90;;;;;;5022962;28;20285;-82
2022/11/02 09:45:14;;;;;;;2.75;1.20;;;18.70;99.90;;;;;;5043274;28;20358;-79
2022/11/02 09:48:09;;;;;;;4.07;1.48;;;18.70;99.90;;;;;;5043596;28;20171;-80
2022/11/02 09:50:47;;;;;;;4.80;1.38;;;18.70;99.90;;;;;;5035725;28;20201;-80
2022/11/02 09:53:30;;;;;;;4.78;1.25;;;18.80;99.90;;;;;;5021192;28;20357;-81
2022/11/02 09:56:00;;;;;;;4.18;1.02;;;18.80;99.90;;;;;;5023303;28;20202;-79
2022/11/02 09:58:37;;;;;;;4.00;1.40;;;18.70;99.90;;;;;;5020167;28;20201;-80
2022/11/02 10:01:26;;;;;;;6.47;1.48;;;18.80;99.90;;;;;;5037740;28;20266;-80
2022/11/02 10:04:12;;;;;;;3.47;1.13;;;18.90;99.90;;;;;;5026924;28;20205;-79
2022/11/02 10:06:43;;;;;;;3.13;1.20;;;18.90;99.90;;;;;;5021799;28;20176;-79
2022/11/02 10:09:14;;;;;;;7.43;1.50;;;18.90;99.90;;;;;;5028289;28;20271;-81
2022/11/02 10:12:21;;;;;;;3.22;1.23;;;19.00;99.90;;;;;;5048418;28;20202;-79
2022/11/02 10:15:11;;;;;;;3.33;1.25;;;19.00;99.90;;;;;;5021352;28;20178;-84
2022/11/02 10:17:41;;;;;;;4.40;1.40;;;19.10;99.90;;;;;;5027477;28;20273;-80
2022/11/02 10:20:32;;;;;;;7.05;1.40;;;19.00;99.90;;;;;;5032435;28;20253;-83
2022/11/02 10:23:02;;;;;;;3.28;1.30;;;18.90;99.90;;;;;;5051636;28;20208;-80
2022/11/02 10:25:28;;;;;;;4.30;1.33;;;18.80;99.90;;;;;;5030999;28;20254;-80
2022/11/02 10:28:03;;;;;;;4.68;1.30;;;18.70;99.90;;;;;;5034048;28;20252;-82
2022/11/02 10:30:29;;;;;;;4.85;1.30;;;18.60;99.90;;;;;;5047741;28;20197;-80
2022/11/02 10:32:58;;;;;;;3.75;1.17;;;18.50;99.90;;;;;;5073699;28;20169;-80
2022/11/02 10:35:26;;;;;;;4.07;1.25;;;18.40;99.90;;;;;;5059949;28;20217;-79
2022/11/02 10:38:04;;;;;;;4.95;1.30;;;18.40;99.90;;;;;;5061917;28;20183;-79
2022/11/02 10:40:54;;;;;;;4.13;1.20;;;18.50;99.90;;;;;;5031890;28;20220;-80
2022/11/02 10:43:31;;;;;;;3.85;1.30;;;18.60;99.90;;;;;;5038437;28;20163;-82
2022/11/02 10:46:10;;;;;;;5.20;1.30;;;18.60;99.90;;;;;;5032471;28;20315;-79
2022/11/02 10:49:00;;;;;;;3.88;1.27;;;18.60;99.90;;;;;;5047967;28;20170;-80
2022/11/02 10:51:27;;;;;;;4.97;1.10;;;18.40;99.90;;;;;;5053744;28;20181;-82
2022/11/02 10:53:55;;;;;;;4.72;1.30;;;18.30;99.90;;;;;;5030733;28;20226;-80
2022/11/02 10:56:30;;;;;;;4.75;1.10;;;18.20;99.90;;;;;;5043195;28;20174;-80
2022/11/02 10:58:59;;;;;;;2.88;0.90;;;18.20;99.90;;;;;;5037065;28;20197;-79
2022/11/02 11:01:26;;;;;;;4.32;1.20;;;18.30;99.90;;;;;;5035713;28;20190;-80
2022/11/02 11:03:51;;;;;;;2.33;0.93;;;18.30;99.90;;;;;;5054165;28;20170;-83
2022/11/02 11:06:17;;;;;;;5.85;1.10;;;18.40;99.90;;;;;;5023972;28;20182;-83
2022/11/02 11:08:45;;;;;;;4.78;1.48;;;18.50;99.90;;;;;;5038890;28;20185;-82
2022/11/02 11:11:31;;;;;;;4.68;1.50;;;18.60;99.90;;;;;;5045548;28;20173;-83
2022/11/02 11:14:02;;;;;;;5.30;1.20;;;18.60;99.90;;;;;;5057337;28;20277;-79
2022/11/02 11:16:37;;;;;;;4.43;1.30;;;18.60;99.90;;;;;;5044705;28;20212;-74
2022/11/02 11:19:06;;;;;;;3.83;1.23;;;18.50;99.90;;;;;;5049892;28;20212;-72
2022/11/02 11:21:39;;;;;;;5.30;1.33;;;18.40;99.90;;;;;;5043493;28;20229;-74
2022/11/02 11:24:36;;;;;;;3.45;1.10;;;18.40;99.90;;;;;;5014547;28;20190;-73
2022/11/02 11:27:18;;;;;;;3.13;1.13;;;18.40;99.90;;;;;;5032457;28;20189;-73
2022/11/02 11:29:49;;;;;;;4.40;1.15;;;18.50;99.90;;;;;;5015161;28;20273;-74
2022/11/02 11:32:24;;;;;;;3.95;1.20;;;18.60;99.90;;;;;;5042899;28;20399;-74
2022/11/02 11:35:05;;;;;;;3.00;1.17;;;18.70;99.90;;;;;;5050054;28;20325;-73
2022/11/02 11:37:33;;;;;;;5.38;1.48;;;18.80;99.90;;;;;;5040880;28;20174;-76
2022/11/02 11:40:05;;;;;;;4.38;1.25;;;18.80;99.90;;;;;;5016415;28;20194;-75
2022/11/02 11:42:34;;;;;;;4.45;1.40;;;18.90;99.90;;;;;;5043815;28;20200;-73
2022/11/02 11:45:05;;;;;;;7.15;1.30;;;18.90;99.90;;;;;;5018084;28;20182;-75
2022/11/02 11:47:38;;;;;;;4.75;1.60;;;19.00;99.90;;;;;;5046596;28;20457;-75
2022/11/02 11:50:13;;;;;;;7.95;1.58;;;19.10;99.90;;;;;;5059972;28;20188;-74
2022/11/02 11:52:41;;;;;;;5.65;1.63;;;19.10;99.90;;;;;;5042138;28;20430;-72
2022/11/02 11:55:24;;;;;;;4.38;1.33;;;19.10;99.90;;;;;;5037517;28;20178;-73
2022/11/02 11:58:21;;;;;;;4.50;1.52;;;19.10;99.10;;;;;;5051566;28;20182;-73
2022/11/02 12:01:15;;;;;;;3.58;1.25;;;19.10;99.90;;;;;;5054006;28;20182;-73
2022/11/02 12:03:56;;;;;;;3.35;1.25;;;19.10;99.70;;;;;;5034306;28;20208;-73
2022/11/02 12:06:43;;;;;;;4.65;1.27;;;19.10;99.50;;;;;;5036981;28;20174;-74
2022/11/02 12:09:21;;;;;;;3.08;1.33;;;19.00;99.70;;;;;;5053816;28;20198;-72
2022/11/02 12:12:09;;;;;;;4.07;1.40;;;19.00;99.40;;;;;;5021494;28;20174;-71
2022/11/02 12:14:47;;;;;;;5.07;1.30;;;19.10;99.30;;;;;;5035279;28;20182;-73
2022/11/02 12:17:39;;;;;;;5.25;1.17;;;19.10;99.40;;;;;;5033147;28;20210;-73
2022/11/02 12:20:18;;;;;;;3.75;1.05;;;19.20;99.50;;;;;;5060516;28;20198;-74
2022/11/02 12:23:16;;;;;;;2.13;0.85;;;19.20;99.40;;;;;;5037291;28;20173;-72
2022/11/02 12:25:44;;;;;;;3.90;1.25;;;19.30;99.80;;;;;;5036285;28;20261;-75
2022/11/02 12:28:28;;;;;;;4.13;1.48;;;19.50;99.70;;;;;;5033878;28;20186;-72
2022/11/02 12:31:06;;;;;;;5.43;1.38;;;19.50;99.60;;;;;;5033749;28;20201;-73
2022/11/02 12:33:38;;;;;;;3.70;1.10;;;19.60;98.80;;;;;;5052215;28;20185;-73
2022/11/02 12:36:22;;;;;;;3.63;1.20;;;19.80;98.30;;;;;;5036756;28;20170;-72
2022/11/02 12:38:58;;;;;;;4.78;1.05;;;19.80;98.40;;;;;;5036611;28;20240;-74
2022/11/02 12:42:05;;;;;;;4.50;1.63;;;19.80;97.50;;;;;;5025017;28;20182;-73
2022/11/02 12:44:42;;;;;;;4.57;1.40;;;19.90;95.70;;;;;;5020421;28;20171;-73
2022/11/02 12:47:20;;;;;;;3.72;1.10;;;19.90;97.00;;;;;;5028900;28;20175;-73
2022/11/02 12:50:04;;;;;;;3.40;0.98;;;19.90;96.80;;;;;;5051993;28;20177;-72
2022/11/02 12:52:54;;;;;;;5.18;1.50;;;19.90;96.30;;;;;;5037924;28;20183;-72
2022/11/02 12:55:26;;;;;;;4.22;1.25;;;19.90;96.20;;;;;;5050789;28;20181;-73
2022/11/02 12:58:00;;;;;;;5.07;1.50;;;19.90;95.90;;;;;;5024789;28;20186;-73
2022/11/02 13:00:28;;;;;;;3.95;1.40;;;19.90;95.70;;;;;;5025784;28;20206;-73
2022/11/02 13:03:00;;;;;;;5.20;1.40;;;19.80;95.70;;;;;;5023508;28;20228;-74
2022/11/02 13:05:49;;;;;;;3.30;1.23;;;19.80;95.60;;;;;;5036432;28;20433;-73
2022/11/02 13:08:32;;;;;;;4.25;1.20;;;19.60;95.60;;;;;;5052989;28;20260;-74
2022/11/02 13:11:01;;;;;;;3.20;1.20;;;19.50;95.80;;;;;;5037179;28;20215;-73
2022/11/02 13:13:38;;;;;;;4.85;1.23;;;19.50;96.10;;;;;;5032608;28;20234;-73
2022/11/02 13:16:09;;;;;;;5.00;1.20;;;19.50;96.20;;;;;;5028679;28;20174;-73
2022/11/02 13:18:38;;;;;;;7.20;1.23;;;19.50;96.00;;;;;;5032822;28;20194;-74
2022/11/02 13:21:07;;;;;;;3.97;1.13;;;19.60;96.10;;;;;;5035256;28;20201;-73
2022/11/02 13:23:33;;;;;;;3.67;1.02;;;19.60;95.80;;;;;;5048768;28;20171;-73
2022/11/02 13:26:06;;;;;;;3.58;1.05;;;19.70;96.10;;;;;;5044260;28;20232;-74